Time;durP1;ratioP1;P1;durP2;ratioP2;P2;SDS_P1;SDS_P2;PMS_P1;PMS_P2;Temp;Humidity;BMP_temperature;BMP_pressure;BME280_temperature;BME280_humidity;BME280_pressure;Samples;Min_cycle;Max_cycle;Signal;HPM_P1;HPM_P2
2022/06/30 00:02:36;;;;;;;1.55;1.02;;;;;;;19.49;67.63;101124.00;6222216;28;20049;-74
2022/06/30 00:05:37;;;;;;;1.45;1.10;;;;;;;19.44;68.15;101131.50;6221704;28;20056;-73
2022/06/30 00:08:38;;;;;;;1.10;1.00;;;;;;;19.43;68.47;101132.50;6222477;28;20057;-74
2022/06/30 00:11:41;;;;;;;0.80;0.80;;;;;;;19.39;68.68;101139.06;6221813;28;20493;-74
2022/06/30 00:14:43;;;;;;;3.28;0.90;;;;;;;19.37;69.38;101135.69;6221912;28;20046;-73
2022/06/30 00:17:44;;;;;;;1.00;0.82;;;;;;;19.33;69.19;101140.41;6222085;28;20049;-73
2022/06/30 00:20:46;;;;;;;1.00;0.90;;;;;;;19.30;68.62;101126.50;6221622;28;20049;-73
2022/06/30 00:23:47;;;;;;;2.55;1.38;;;;;;;19.29;69.54;101128.31;6222331;28;20386;-73
2022/06/30 00:26:50;;;;;;;1.63;1.05;;;;;;;19.23;69.05;101123.53;6221805;28;20497;-73
2022/06/30 00:29:51;;;;;;;1.48;0.82;;;;;;;19.18;70.63;101123.91;6221641;28;20049;-74
2022/06/30 00:32:53;;;;;;;1.15;1.05;;;;;;;19.13;70.40;101128.78;6222784;28;20049;-74
2022/06/30 00:35:55;;;;;;;1.25;1.15;;;;;;;19.09;70.30;101122.00;6223573;28;20056;-74
2022/06/30 00:38:57;;;;;;;1.85;1.05;;;;;;;19.04;71.45;101123.38;6226752;28;20077;-73
2022/06/30 00:42:00;;;;;;;1.58;1.27;;;;;;;18.96;71.59;101131.97;6245078;28;20464;-73
2022/06/30 00:45:02;;;;;;;2.45;1.20;;;;;;;18.94;72.05;101117.94;6250398;28;20408;-73
2022/06/30 00:48:03;;;;;;;1.25;0.90;;;;;;;18.90;72.03;101120.03;6251149;28;20521;-73
2022/06/30 00:51:05;;;;;;;1.20;1.10;;;;;;;18.85;72.85;101111.56;6250726;28;20049;-73
2022/06/30 00:54:06;;;;;;;1.20;0.90;;;;;;;18.79;73.04;101111.22;6241872;28;20046;-73
2022/06/30 00:57:10;;;;;;;1.10;1.00;;;;;;;18.74;73.30;101108.94;6250857;28;20124;-74
2022/06/30 01:00:13;;;;;;;1.17;1.08;;;;;;;18.69;72.49;101103.97;6250353;28;20049;-74
2022/06/30 01:03:15;;;;;;;1.23;1.08;;;;;;;18.62;73.15;101101.91;6251040;28;20049;-74
2022/06/30 01:06:17;;;;;;;1.17;1.08;;;;;;;18.58;73.38;101093.34;6250123;28;20049;-74
2022/06/30 01:12:44;;;;;;;2.42;1.10;;;;;;;18.51;73.90;101086.81;6249339;28;20088;-73
2022/06/30 01:15:46;;;;;;;2.10;1.05;;;;;;;18.48;74.12;101079.91;6250628;28;20053;-73
2022/06/30 01:18:47;;;;;;;3.85;1.45;;;;;;;18.40;74.35;101076.22;6250395;28;20056;-74
2022/06/30 01:22:02;;;;;;;2.00;1.50;;;;;;;18.35;74.37;101076.59;6250032;28;20454;-71
2022/06/30 01:25:03;;;;;;;1.58;1.08;;;;;;;18.33;74.19;101075.00;6226323;28;20504;-71
2022/06/30 01:28:05;;;;;;;1.35;1.15;;;;;;;18.28;75.07;101069.22;6225736;28;20053;-72
2022/06/30 01:31:06;;;;;;;1.25;1.08;;;;;;;18.21;75.45;101075.03;6225313;28;20490;-74
2022/06/30 01:34:08;;;;;;;1.77;1.25;;;;;;;18.17;76.67;101067.44;6225307;28;20053;-73
2022/06/30 01:37:10;;;;;;;2.30;1.10;;;;;;;18.15;76.78;101054.22;6225592;28;20489;-73
2022/06/30 01:40:12;;;;;;;1.38;1.02;;;;;;;18.14;77.18;101054.34;6225075;28;20050;-73
2022/06/30 01:43:13;;;;;;;1.50;1.20;;;;;;;18.09;77.19;101056.53;6225594;28;20057;-74
2022/06/30 01:46:20;;;;;;;1.42;1.33;;;;;;;18.06;76.57;101049.63;6224701;28;20486;-73
2022/06/30 01:49:22;;;;;;;1.80;1.40;;;;;;;18.03;77.29;101054.34;6224788;28;20057;-74
2022/06/30 01:52:24;;;;;;;1.80;1.10;;;;;;;18.00;77.09;101044.81;6224714;28;20528;-73
2022/06/30 01:55:27;;;;;;;1.35;1.25;;;;;;;17.97;77.10;101045.06;6225927;28;20050;-71
2022/06/30 01:58:28;;;;;;;2.83;1.35;;;;;;;17.94;76.81;101048.81;6224978;28;20426;-73
2022/06/30 02:01:29;;;;;;;1.65;1.15;;;;;;;17.91;77.41;101048.22;6224586;28;20064;-73
2022/06/30 02:04:50;;;;;;;1.40;1.20;;;;;;;17.88;78.08;101057.28;6224464;28;20050;-73
2022/06/30 02:07:54;;;;;;;1.25;1.13;;;;;;;17.85;78.83;101057.53;6224899;28;20139;-71
2022/06/30 02:10:55;;;;;;;3.03;1.60;;;;;;;17.79;78.90;101054.50;6224327;28;20054;-71
2022/06/30 02:13:56;;;;;;;1.58;1.30;;;;;;;17.78;78.20;101058.13;6224422;28;20485;-71
2022/06/30 02:16:57;;;;;;;1.30;1.00;;;;;;;17.76;78.46;101058.25;6224688;28;20050;-71
2022/06/30 02:20:00;;;;;;;2.92;1.67;;;;;;;17.72;78.94;101059.44;6224176;28;20524;-71
2022/06/30 02:23:04;;;;;;;1.90;1.30;;;;;;;17.68;79.44;101053.50;6234378;28;20493;-72
2022/06/30 02:26:05;;;;;;;1.73;1.20;;;;;;;17.66;78.72;101051.91;6248537;28;20061;-73
2022/06/30 02:29:06;;;;;;;1.80;1.17;;;;;;;17.65;78.96;101061.69;6248680;28;20497;-73
2022/06/30 02:32:09;;;;;;;1.13;1.02;;;;;;;17.66;80.03;101058.06;6248487;28;20053;-72
2022/06/30 02:35:11;;;;;;;3.28;1.50;;;;;;;17.65;80.04;101059.03;6248266;28;20052;-72
2022/06/30 02:38:13;;;;;;;2.05;0.90;;;;;;;17.64;80.40;101056.53;6245556;28;20080;-72
2022/06/30 02:41:15;;;;;;;2.53;1.75;;;;;;;17.62;79.52;101059.31;6247399;28;20049;-72
2022/06/30 02:44:16;;;;;;;1.20;1.08;;;;;;;17.59;79.31;101048.06;6247970;28;20076;-72
2022/06/30 02:47:17;;;;;;;3.20;1.67;;;;;;;17.55;80.32;101042.13;6247808;28;20508;-72
2022/06/30 02:50:19;;;;;;;2.15;1.38;;;;;;;17.54;80.26;101036.94;6248129;28;20053;-73
2022/06/30 02:53:23;;;;;;;1.40;1.20;;;;;;;17.51;80.08;101048.66;6247588;28;20050;-72
2022/06/30 02:56:24;;;;;;;1.13;1.00;;;;;;;17.45;81.37;101052.63;6247990;28;20041;-72
2022/06/30 02:59:26;;;;;;;2.08;1.35;;;;;;;17.41;81.39;101045.03;6247100;28;20053;-72
2022/06/30 03:02:27;;;;;;;3.10;1.02;;;;;;;17.42;81.16;101047.53;6247309;28;20053;-72
2022/06/30 03:05:28;;;;;;;2.45;1.50;;;;;;;17.35;81.16;101049.00;6247615;28;20048;-72
2022/06/30 03:08:31;;;;;;;3.63;1.35;;;;;;;17.35;81.49;101049.00;6247790;28;20508;-72
2022/06/30 03:11:32;;;;;;;2.20;1.40;;;;;;;17.34;82.10;101052.59;6247628;28;20079;-72
2022/06/30 03:14:34;;;;;;;2.97;1.35;;;;;;;17.34;81.76;101057.06;6247364;28;20045;-72
2022/06/30 03:17:35;;;;;;;1.45;1.20;;;;;;;17.32;82.83;101056.34;6248027;28;20053;-73
2022/06/30 03:20:37;;;;;;;1.58;1.10;;;;;;;17.28;83.31;101050.44;6247287;28;20057;-71
2022/06/30 03:23:40;;;;;;;2.20;1.30;;;;;;;17.27;83.77;101040.78;6232632;28;20077;-71
2022/06/30 03:26:41;;;;;;;2.67;1.30;;;;;;;17.24;83.02;101035.69;6222982;28;20046;-71
2022/06/30 03:29:43;;;;;;;1.73;1.45;;;;;;;17.21;83.19;101031.47;6222728;28;20390;-71
2022/06/30 03:32:44;;;;;;;2.35;1.38;;;;;;;17.23;82.99;101028.69;6222954;28;20056;-71
2022/06/30 03:35:46;;;;;;;1.92;1.48;;;;;;;17.23;83.06;101026.88;6222867;28;20052;-71
2022/06/30 03:38:49;;;;;;;1.50;1.40;;;;;;;17.21;83.82;101022.63;6222937;28;20050;-71
2022/06/30 03:41:50;;;;;;;1.67;1.42;;;;;;;17.24;84.26;101027.72;6228093;28;20050;-71
2022/06/30 03:44:51;;;;;;;2.33;1.50;;;;;;;17.22;83.58;101033.16;6225484;28;20046;-70
2022/06/30 03:47:53;;;;;;;1.80;1.50;;;;;;;17.20;84.06;101023.59;6237090;28;20054;-71
2022/06/30 03:50:55;;;;;;;1.65;1.23;;;;;;;17.20;84.51;101026.25;6242158;28;20057;-71
2022/06/30 03:53:57;;;;;;;2.55;1.58;;;;;;;17.21;84.88;101030.59;6233091;28;20056;-71
2022/06/30 03:56:59;;;;;;;1.60;1.30;;;;;;;17.18;84.48;101028.19;6237657;28;20046;-71
2022/06/30 04:00:00;;;;;;;2.13;1.67;;;;;;;17.19;84.75;101030.72;6236366;28;20065;-71
2022/06/30 04:03:02;;;;;;;2.00;1.50;;;;;;;17.21;84.84;101017.31;6232181;28;20409;-71
2022/06/30 04:06:03;;;;;;;1.85;1.35;;;;;;;17.24;85.40;101027.72;6233188;28;20045;-71
2022/06/30 04:09:06;;;;;;;1.50;1.38;;;;;;;17.29;85.21;101020.22;6232501;28;20053;-71
2022/06/30 04:12:08;;;;;;;1.92;1.30;;;;;;;17.31;84.90;101026.28;6232532;28;20061;-70
2022/06/30 04:15:10;;;;;;;2.00;1.73;;;;;;;17.34;84.91;101015.41;6232539;28;20646;-70
2022/06/30 04:18:12;;;;;;;2.38;1.50;;;;;;;17.34;84.83;101010.09;6232535;28;20532;-70
2022/06/30 04:21:16;;;;;;;1.70;1.13;;;;;;;17.35;84.96;101009.16;6232421;28;20498;-70
2022/06/30 04:24:19;;;;;;;1.65;1.13;;;;;;;17.42;84.51;101005.03;6230607;28;20061;-71
2022/06/30 04:27:20;;;;;;;2.35;1.48;;;;;;;17.44;85.00;101002.25;6231866;28;20045;-71
2022/06/30 04:33:37;;;;;;;3.17;1.48;;;;;;;17.50;85.01;101007.09;6226446;28;20049;-71
2022/06/30 04:36:38;;;;;;;2.63;1.50;;;;;;;17.51;85.25;101008.78;6222099;28;20045;-71
2022/06/30 04:39:41;;;;;;;1.85;1.45;;;;;;;17.58;85.04;101011.81;6225497;28;20053;-71
2022/06/30 04:42:41;;;;;;;2.15;1.45;;;;;;;17.58;85.77;101017.16;6245906;28;20046;-71
2022/06/30 04:45:43;;;;;;;3.60;1.55;;;;;;;17.61;85.70;101014.22;6245675;28;20416;-72
2022/06/30 04:48:44;;;;;;;3.78;1.20;;;;;;;17.68;84.66;101021.59;6246366;28;20049;-73
2022/06/30 04:51:46;;;;;;;2.53;1.40;;;;;;;17.73;85.05;101016.78;6241394;28;20050;-71
2022/06/30 04:54:48;;;;;;;1.88;1.40;;;;;;;17.78;85.07;101019.09;6244083;28;20076;-73
2022/06/30 04:57:50;;;;;;;2.80;1.48;;;;;;;17.83;84.82;101018.72;6245937;28;20053;-73
2022/06/30 05:00:51;;;;;;;1.60;1.05;;;;;;;17.90;84.42;101023.44;6245586;28;20053;-72
2022/06/30 05:03:53;;;;;;;1.80;1.48;;;;;;;17.96;83.70;101022.09;6245726;28;20050;-73
2022/06/30 05:06:54;;;;;;;2.53;1.60;;;;;;;18.00;83.84;101019.06;6245808;28;20509;-73
2022/06/30 05:09:57;;;;;;;2.20;1.50;;;;;;;18.03;83.55;101009.13;6245918;28;20056;-72
2022/06/30 05:12:58;;;;;;;1.33;1.17;;;;;;;18.05;83.78;101004.56;6242668;28;20046;-70
2022/06/30 05:16:00;;;;;;;1.63;1.45;;;;;;;18.09;84.07;101008.66;6242017;28;20045;-71
2022/06/30 05:19:01;;;;;;;1.50;1.40;;;;;;;18.10;84.50;101013.00;6246044;28;20060;-73
2022/06/30 05:22:03;;;;;;;2.05;1.40;;;;;;;18.12;84.70;101014.59;6235757;28;20045;-73
2022/06/30 05:28:25;;;;;;;1.92;1.20;;;;;;;18.28;84.69;101011.53;6226036;28;20058;-73
2022/06/30 05:31:27;;;;;;;2.90;1.48;;;;;;;18.33;84.47;101014.66;6225432;28;20057;-74
2022/06/30 05:34:28;;;;;;;7.20;2.13;;;;;;;18.41;84.86;101014.88;6225315;28;20054;-71
2022/06/30 05:37:29;;;;;;;1.27;1.17;;;;;;;18.50;84.15;101019.44;6225985;28;20053;-73
2022/06/30 05:40:32;;;;;;;1.10;1.00;;;;;;;18.55;84.80;101016.41;6225147;28;20061;-73
2022/06/30 05:43:33;;;;;;;1.63;1.20;;;;;;;18.59;84.57;101022.31;6225716;28;20061;-73
2022/06/30 05:46:36;;;;;;;2.53;1.23;;;;;;;18.66;83.94;101020.81;6225238;28;20097;-73
2022/06/30 05:49:37;;;;;;;1.73;1.50;;;;;;;18.70;84.56;101022.28;6225294;28;20053;-73
2022/06/30 05:52:39;;;;;;;2.30;1.63;;;;;;;18.75;85.02;101028.06;6226160;28;20056;-73
2022/06/30 05:55:41;;;;;;;2.20;1.48;;;;;;;18.80;85.24;101019.69;6225228;28;20061;-74
2022/06/30 05:58:45;;;;;;;3.13;1.75;;;;;;;18.90;84.63;101024.16;6225215;28;20061;-74
2022/06/30 06:01:46;;;;;;;1.88;1.65;;;;;;;19.03;83.96;101018.63;6225007;28;20050;-73
2022/06/30 06:04:47;;;;;;;2.30;1.23;;;;;;;19.12;84.57;101023.19;6224779;28;20520;-73
2022/06/30 06:07:49;;;;;;;2.55;1.60;;;;;;;19.16;84.82;101019.25;6224918;28;20049;-73
2022/06/30 06:10:51;;;;;;;3.00;2.10;;;;;;;19.26;84.19;101022.00;6224626;28;20064;-73
2022/06/30 06:13:53;;;;;;;3.13;1.80;;;;;;;19.39;85.32;101021.78;6224461;28;20425;-73
2022/06/30 06:16:54;;;;;;;2.97;1.42;;;;;;;19.49;83.97;101012.88;6224917;28;20046;-73
2022/06/30 06:19:55;;;;;;;2.67;1.80;;;;;;;19.57;84.23;101009.53;6224102;28;20057;-73
2022/06/30 06:22:57;;;;;;;1.75;1.55;;;;;;;19.67;84.70;101013.13;6225972;28;20046;-72
2022/06/30 06:25:59;;;;;;;2.22;1.63;;;;;;;19.78;84.71;101025.50;6224277;28;20046;-72
2022/06/30 06:29:06;;;;;;;2.67;1.83;;;;;;;19.89;84.82;101019.22;6224645;28;20057;-72
2022/06/30 06:32:09;;;;;;;2.70;1.90;;;;;;;20.03;84.88;101026.88;6224129;28;20056;-72
2022/06/30 06:35:10;;;;;;;3.08;2.00;;;;;;;20.19;84.59;101027.19;6223651;28;20418;-74
2022/06/30 06:38:11;;;;;;;5.60;1.88;;;;;;;20.31;83.80;101021.75;6224625;28;20058;-74
2022/06/30 06:41:14;;;;;;;3.40;2.05;;;;;;;20.40;83.39;101019.06;6239921;28;20050;-74
2022/06/30 06:44:15;;;;;;;4.95;2.03;;;;;;;20.45;83.29;101008.81;6248265;28;20049;-74
2022/06/30 06:47:17;;;;;;;3.53;2.28;;;;;;;20.48;83.11;101011.25;6248195;28;20045;-74
2022/06/30 06:50:18;;;;;;;3.35;1.88;;;;;;;20.53;83.83;101005.50;6246952;28;20055;-74
2022/06/30 06:53:20;;;;;;;2.58;2.13;;;;;;;20.56;84.16;101002.53;6224148;28;20057;-74
2022/06/30 06:56:22;;;;;;;3.08;2.42;;;;;;;20.59;83.70;101004.94;6241932;28;20045;-74
2022/06/30 06:59:24;;;;;;;3.45;2.05;;;;;;;20.60;84.84;101003.94;6248183;28;20052;-75
2022/06/30 07:02:25;;;;;;;3.50;2.15;;;;;;;20.62;85.24;101004.66;6248028;28;20493;-73
2022/06/30 07:05:26;;;;;;;4.05;1.85;;;;;;;20.63;85.44;101001.00;6247721;28;20057;-73
2022/06/30 07:08:28;;;;;;;3.17;2.03;;;;;;;20.71;85.06;100992.25;6248076;28;20393;-72
2022/06/30 07:11:30;;;;;;;5.20;2.13;;;;;;;20.78;85.06;100982.69;6247658;28;20520;-72
2022/06/30 07:14:32;;;;;;;3.97;2.63;;;;;;;20.88;84.47;100980.00;6247505;28;20065;-72
2022/06/30 07:17:36;;;;;;;3.35;1.92;;;;;;;20.98;83.82;100986.19;6248230;28;20409;-72
2022/06/30 07:20:37;;;;;;;2.13;1.77;;;;;;;21.03;83.62;100987.47;6236819;28;20049;-72
2022/06/30 07:23:39;;;;;;;3.47;2.70;;;;;;;21.08;84.66;100992.38;6247671;28;20072;-73
2022/06/30 07:26:42;;;;;;;3.13;2.17;;;;;;;21.12;85.46;100998.25;6247590;28;20503;-72
2022/06/30 07:29:43;;;;;;;2.50;1.95;;;;;;;21.18;84.86;100987.00;6247446;28;20420;-72
2022/06/30 07:32:44;;;;;;;4.35;2.25;;;;;;;21.26;82.71;100987.97;6247425;28;20083;-73
2022/06/30 07:35:46;;;;;;;4.68;2.60;;;;;;;21.34;82.97;100978.38;6233581;28;20046;-72
2022/06/30 07:38:49;;;;;;;4.85;2.33;;;;;;;21.43;81.76;100970.31;6222843;28;20443;-72
2022/06/30 07:41:51;;;;;;;3.60;2.30;;;;;;;21.48;80.64;100976.09;6222896;28;20046;-72
2022/06/30 07:44:53;;;;;;;2.85;2.08;;;;;;;21.55;80.62;100976.34;6221746;28;20053;-72
2022/06/30 07:47:54;;;;;;;3.47;2.38;;;;;;;21.62;79.96;100980.13;6222599;28;20053;-72
2022/06/30 07:50:55;;;;;;;3.53;2.35;;;;;;;21.66;80.84;100975.31;6223453;28;20057;-74
2022/06/30 07:53:57;;;;;;;4.00;2.58;;;;;;;21.65;81.31;100978.97;6245708;28;20497;-72
2022/06/30 07:56:59;;;;;;;3.38;2.05;;;;;;;21.68;81.62;100976.84;6245156;28;20042;-73
2022/06/30 08:00:01;;;;;;;2.72;1.90;;;;;;;21.73;80.20;100971.91;6246499;28;20092;-75
2022/06/30 08:03:03;;;;;;;2.70;1.83;;;;;;;21.83;80.33;100963.81;6247021;28;20053;-72
2022/06/30 08:06:04;;;;;;;2.95;2.35;;;;;;;21.90;79.60;100958.72;6246208;28;20057;-72
2022/06/30 08:09:06;;;;;;;3.90;2.42;;;;;;;21.97;79.27;100957.94;6247021;28;20493;-73
2022/06/30 08:12:10;;;;;;;4.30;2.75;;;;;;;22.06;78.85;100958.88;6246390;28;20056;-73
2022/06/30 08:15:13;;;;;;;4.93;3.30;;;;;;;22.15;77.73;100959.84;6242429;28;20090;-71
2022/06/30 08:18:14;;;;;;;3.88;2.40;;;;;;;22.19;78.54;100975.44;6235752;28;20045;-71
2022/06/30 08:21:16;;;;;;;5.07;2.13;;;;;;;22.27;77.31;100972.84;6230109;28;20050;-71
2022/06/30 08:24:17;;;;;;;3.15;2.20;;;;;;;22.32;77.61;100964.38;6228259;28;20063;-72
2022/06/30 08:27:20;;;;;;;3.63;2.47;;;;;;;22.38;77.59;100969.09;6246369;28;20160;-71
2022/06/30 08:30:23;;;;;;;3.10;2.40;;;;;;;22.45;75.48;100970.19;6224968;28;20053;-72
2022/06/30 08:33:24;;;;;;;3.33;2.40;;;;;;;22.50;75.92;100967.88;6233245;28;20049;-71
2022/06/30 08:36:25;;;;;;;4.53;2.53;;;;;;;22.54;76.51;100950.50;6246238;28;20041;-71
2022/06/30 08:42:48;;;;;;;3.42;2.45;;;;;;;22.66;75.88;100952.94;6239501;28;20062;-72
2022/06/30 08:45:52;;;;;;;3.78;2.55;;;;;;;22.74;75.66;100948.47;6234897;28;20053;-71
2022/06/30 08:48:54;;;;;;;3.28;2.70;;;;;;;22.78;75.89;100946.34;6236289;28;20038;-72
2022/06/30 08:51:57;;;;;;;4.07;2.70;;;;;;;22.90;75.51;100945.13;6236804;28;20072;-72
2022/06/30 08:55:00;;;;;;;2.30;2.10;;;;;;;23.01;74.74;100941.34;6242831;28;20128;-72
2022/06/30 08:58:05;;;;;;;4.40;2.30;;;;;;;23.13;75.07;100944.59;6245011;28;20054;-72
2022/06/30 09:01:06;;;;;;;4.28;2.97;;;;;;;23.20;72.65;100945.63;6234356;28;20046;-73
2022/06/30 09:04:11;;;;;;;3.80;2.67;;;;;;;23.25;72.46;100948.66;6245703;28;20052;-72
2022/06/30 09:07:12;;;;;;;3.65;2.40;;;;;;;23.36;73.43;100947.56;6250901;28;20046;-73
2022/06/30 09:10:14;;;;;;;4.78;2.85;;;;;;;23.39;71.91;100945.41;6241616;28;20054;-73
2022/06/30 09:13:17;;;;;;;4.80;2.90;;;;;;;23.40;73.17;100940.91;6238895;28;20425;-73
2022/06/30 09:16:18;;;;;;;7.03;2.55;;;;;;;23.41;71.08;100929.16;6226700;28;20053;-72
2022/06/30 09:19:19;;;;;;;5.57;2.38;;;;;;;23.39;73.01;100933.81;6228808;28;20527;-72
2022/06/30 09:22:23;;;;;;;4.82;3.00;;;;;;;23.52;72.23;100936.91;6235937;28;20053;-72
2022/06/30 09:25:30;;;;;;;3.10;2.33;;;;;;;23.66;71.36;100939.00;6236170;28;20065;-72
2022/06/30 09:28:44;;;;;;;2.88;2.28;;;;;;;23.70;69.21;100934.16;6228163;28;20494;-72
2022/06/30 09:31:45;;;;;;;4.03;2.13;;;;;;;23.75;70.06;100935.38;6225294;28;20497;-72
2022/06/30 09:34:49;;;;;;;4.30;2.65;;;;;;;23.88;70.02;100926.81;6225493;28;20050;-72
2022/06/30 09:38:02;;;;;;;3.78;2.70;;;;;;;24.01;69.07;100929.88;6225105;28;20559;-72
2022/06/30 09:41:04;;;;;;;4.82;2.45;;;;;;;24.07;68.11;100933.75;6225483;28;20058;-72
2022/06/30 09:44:08;;;;;;;3.70;2.90;;;;;;;24.05;69.58;100933.09;6224773;28;20065;-72
2022/06/30 09:47:11;;;;;;;4.53;2.67;;;;;;;24.14;69.64;100929.41;6225441;28;20049;-72
2022/06/30 09:50:14;;;;;;;4.03;2.53;;;;;;;24.33;68.86;100930.94;6236994;28;20054;-72
2022/06/30 09:53:16;;;;;;;4.30;2.83;;;;;;;24.44;68.49;100914.53;6249962;28;20056;-71
2022/06/30 09:56:17;;;;;;;5.07;2.85;;;;;;;24.46;67.80;100920.56;6249440;28;20091;-72
2022/06/30 09:59:25;;;;;;;3.30;2.55;;;;;;;24.65;67.85;100915.84;6249362;28;20049;-72
2022/06/30 10:02:31;;;;;;;3.05;2.75;;;;;;;24.74;66.61;100907.59;6249332;28;20421;-72
2022/06/30 10:05:33;;;;;;;3.03;2.55;;;;;;;24.79;66.69;100912.47;6249216;28;20055;-72
2022/06/30 10:08:35;;;;;;;5.68;2.70;;;;;;;24.84;65.89;100907.41;6249265;28;20413;-72
2022/06/30 10:11:37;;;;;;;3.00;2.42;;;;;;;24.86;64.69;100900.03;6248861;28;20049;-72
2022/06/30 10:14:40;;;;;;;2.90;2.40;;;;;;;24.80;64.93;100904.25;6249108;28;20572;-71
2022/06/30 10:17:44;;;;;;;5.22;2.50;;;;;;;24.86;66.05;100894.66;6249183;28;20057;-72
2022/06/30 10:20:46;;;;;;;2.90;1.95;;;;;;;24.95;66.22;100904.38;6247158;28;20049;-72
2022/06/30 10:23:50;;;;;;;6.15;2.70;;;;;;;25.15;63.41;100904.84;6258316;22;20528;-76
2022/06/30 10:30:15;;;;;;;3.35;2.60;;;;;;;25.36;62.52;100904.28;6231818;28;20049;-78
2022/06/30 10:33:24;;;;;;;3.10;2.20;;;;;;;25.47;62.40;100901.19;6231088;28;20050;-77
2022/06/30 10:36:30;;;;;;;2.78;2.20;;;;;;;25.49;61.15;100887.59;6231098;28;20054;-78
2022/06/30 10:39:42;;;;;;;3.70;2.08;;;;;;;25.61;61.54;100885.31;6233165;28;20058;-79
2022/06/30 10:42:47;;;;;;;3.92;2.60;;;;;;;25.73;59.11;100878.53;6232580;28;20050;-78
2022/06/30 10:45:58;;;;;;;3.08;2.03;;;;;;;25.75;57.90;100884.56;6234318;28;20050;-78
2022/06/30 10:49:07;;;;;;;2.30;1.95;;;;;;;25.77;59.33;100882.56;6239827;28;20045;-79
2022/06/30 10:52:26;;;;;;;3.58;2.22;;;;;;;25.94;57.34;100886.84;6259894;28;20049;-78
2022/06/30 10:55:27;;;;;;;3.45;2.35;;;;;;;26.02;55.29;100881.38;6259784;28;20049;-78
2022/06/30 10:58:28;;;;;;;2.58;2.13;;;;;;;25.98;54.84;100880.09;6232008;28;20497;-79
2022/06/30 11:01:31;;;;;;;4.15;2.40;;;;;;;25.96;54.22;100868.63;6233614;28;20054;-79
2022/06/30 11:04:32;;;;;;;4.22;2.65;;;;;;;26.08;57.16;100866.38;6235845;28;20046;-79
2022/06/30 11:07:36;;;;;;;3.85;2.25;;;;;;;26.28;55.61;100867.53;6236783;28;20386;-79
2022/06/30 11:10:37;;;;;;;4.13;2.20;;;;;;;26.49;54.97;100868.75;6236574;28;20109;-79
2022/06/30 11:13:39;;;;;;;5.43;2.85;;;;;;;26.68;54.63;100870.91;6237331;28;20054;-78
2022/06/30 11:16:41;;;;;;;2.50;2.20;;;;;;;26.77;53.64;100863.59;6236084;28;20053;-78
2022/06/30 11:19:43;;;;;;;3.25;2.17;;;;;;;26.90;53.62;100847.59;6247951;28;20049;-79
2022/06/30 11:22:45;;;;;;;2.55;2.33;;;;;;;27.07;53.63;100850.94;6262061;28;20052;-79
2022/06/30 11:29:14;;;;;;;3.78;2.20;;;;;;;27.69;53.79;100855.03;6260410;28;20497;-79
2022/06/30 11:32:16;;;;;;;;;;;;;;;28.03;51.59;100848.97;6261737;28;20056;-79
2022/06/30 11:35:25;;;;;;;2.05;1.67;;;;;;;28.37;51.40;100848.25;6262535;28;19928;-79
2022/06/30 11:38:27;;;;;;;;;;;;;;;28.77;47.73;100843.13;6260805;28;20053;-78
2022/06/30 11:44:49;;;;;;;2.35;1.80;;;;;;;29.14;44.81;100830.25;6258544;28;20136;-79
2022/06/30 11:47:56;;;;;;;2.95;2.10;;;;;;;29.20;45.28;100830.25;6257368;28;20053;-79
2022/06/30 11:50:58;;;;;;;4.63;1.90;;;;;;;29.46;42.75;100829.53;6201082;28;20046;-79
2022/06/30 11:54:00;;;;;;;4.68;1.83;;;;;;;29.72;43.13;100830.69;6198827;28;20050;-80
2022/06/30 11:57:01;;;;;;;3.28;2.08;;;;;;;29.91;43.81;100824.44;6207599;28;20042;-80
2022/06/30 12:00:06;;;;;;;2.03;1.80;;;;;;;30.02;43.99;100807.56;6207159;28;20399;-80
2022/06/30 12:03:12;;;;;;;2.25;1.58;;;;;;;30.39;42.08;100809.84;6207110;28;20050;-80
2022/06/30 12:06:17;;;;;;;2.55;2.10;;;;;;;30.38;40.85;100810.91;6207077;28;20137;-79
2022/06/30 12:09:18;;;;;;;3.80;1.95;;;;;;;30.27;40.71;100809.69;6207494;28;20054;-79
2022/06/30 12:12:23;;;;;;;4.22;2.50;;;;;;;30.14;40.33;100807.81;6206323;28;20464;-79
2022/06/30 12:15:24;;;;;;;3.53;2.30;;;;;;;29.94;41.26;100809.66;6207671;28;20155;-79
2022/06/30 12:18:27;;;;;;;5.35;2.40;;;;;;;29.54;42.71;100801.44;6220048;28;20077;-78
2022/06/30 12:21:28;;;;;;;3.78;2.28;;;;;;;28.97;42.50;100810.78;6256323;28;20056;-80
2022/06/30 12:24:30;;;;;;;3.55;2.05;;;;;;;28.50;44.11;100802.38;6256072;28;20073;-79
2022/06/30 12:27:33;;;;;;;2.85;2.17;;;;;;;28.67;46.21;100805.63;6256148;28;20137;-79
2022/06/30 12:30:36;;;;;;;4.03;1.90;;;;;;;29.27;43.00;100798.66;6255219;28;20049;-79
2022/06/30 12:33:40;;;;;;;2.38;1.85;;;;;;;29.64;43.03;100796.47;6238082;28;20053;-81
2022/06/30 12:36:47;;;;;;;3.75;2.50;;;;;;;29.95;40.84;100790.47;6223228;28;20061;-81
2022/06/30 12:39:48;;;;;;;2.60;1.95;;;;;;;30.32;42.64;100796.31;6230175;28;20042;-80
2022/06/30 12:42:52;;;;;;;3.40;2.35;;;;;;;30.90;42.31;100798.31;6231681;28;20513;-80
2022/06/30 12:45:55;;;;;;;2.30;2.05;;;;;;;31.16;40.54;100800.94;6231852;28;20052;-78
2022/06/30 12:48:58;;;;;;;2.80;2.30;;;;;;;30.81;41.03;100784.16;6233695;28;20053;-79
2022/06/30 12:52:00;;;;;;;4.60;2.22;;;;;;;30.31;42.60;100794.66;6231180;28;20121;-79
2022/06/30 12:55:01;;;;;;;3.13;2.20;;;;;;;29.87;42.76;100789.84;6231536;28;20053;-79
2022/06/30 12:58:03;;;;;;;3.28;1.90;;;;;;;29.77;43.71;100785.66;6232347;28;20049;-79
2022/06/30 13:01:04;;;;;;;4.05;2.25;;;;;;;30.34;42.99;100786.09;6230963;28;20053;-80
2022/06/30 13:04:09;;;;;;;3.75;2.22;;;;;;;30.68;41.60;100782.28;6230449;28;20413;-80
2022/06/30 13:07:10;;;;;;;2.80;2.28;;;;;;;30.66;41.20;100778.94;6230163;28;20061;-78
2022/06/30 13:10:11;;;;;;;3.42;2.15;;;;;;;30.55;40.87;100779.59;6229228;28;20054;-80
2022/06/30 13:13:13;;;;;;;2.67;1.73;;;;;;;30.83;40.89;100771.19;6230749;28;20382;-79
2022/06/30 13:16:15;;;;;;;3.42;2.22;;;;;;;30.82;39.20;100772.25;6227375;28;20053;-79
2022/06/30 13:19:19;;;;;;;2.75;1.98;;;;;;;30.68;39.93;100765.16;6228968;28;20046;-81
2022/06/30 13:22:20;;;;;;;2.97;2.22;;;;;;;30.66;41.06;100757.25;6228635;28;20406;-80
2022/06/30 13:25:22;;;;;;;4.45;2.30;;;;;;;30.59;40.67;100759.13;6230083;28;20053;-79
2022/06/30 13:28:23;;;;;;;5.05;2.17;;;;;;;30.36;41.90;100769.63;6230690;28;20057;-80
2022/06/30 13:31:24;;;;;;;2.85;2.55;;;;;;;30.39;42.16;100756.47;6231393;28;20050;-80
2022/06/30 13:34:27;;;;;;;2.75;2.00;;;;;;;30.26;42.30;100772.78;6229089;28;20050;-80
2022/06/30 13:37:29;;;;;;;2.15;1.90;;;;;;;30.38;41.37;100771.06;6229823;28;20535;-79
2022/06/30 13:40:30;;;;;;;2.97;1.90;;;;;;;30.51;41.08;100765.59;6230199;28;20051;-79
2022/06/30 13:43:31;;;;;;;2.33;2.10;;;;;;;30.20;41.99;100765.47;6231119;28;20061;-81
2022/06/30 13:46:34;;;;;;;3.55;2.00;;;;;;;29.81;43.21;100761.69;6234589;28;20050;-79
2022/06/30 13:49:40;;;;;;;3.15;2.03;;;;;;;29.61;42.76;100758.94;6240950;28;20052;-79
2022/06/30 13:52:41;;;;;;;2.67;2.10;;;;;;;29.35;43.49;100758.91;6258071;28;20053;-80
2022/06/30 13:55:43;;;;;;;2.53;2.22;;;;;;;29.33;44.50;100759.91;6258517;28;20452;-80
2022/06/30 13:58:44;;;;;;;2.00;1.80;;;;;;;29.64;42.70;100750.44;6257624;28;20452;-79
2022/06/30 14:01:46;;;;;;;3.13;2.17;;;;;;;29.56;43.18;100745.19;6257715;28;20057;-79
2022/06/30 14:04:48;;;;;;;3.00;2.40;;;;;;;29.03;42.15;100750.47;6255956;28;20053;-78
2022/06/30 14:07:51;;;;;;;2.58;1.67;;;;;;;28.63;42.53;100741.31;6256298;28;20052;-79
2022/06/30 14:10:53;;;;;;;3.55;1.83;;;;;;;28.35;43.56;100744.06;6257499;28;20444;-79
2022/06/30 14:13:54;;;;;;;3.05;1.88;;;;;;;28.15;43.75;100733.06;6259227;28;20057;-79
2022/06/30 14:16:57;;;;;;;3.60;2.38;;;;;;;28.01;45.48;100742.94;6257006;28;20068;-80
2022/06/30 14:19:59;;;;;;;3.67;1.90;;;;;;;27.95;47.83;100743.75;6228331;28;20133;-75
2022/06/30 14:23:01;;;;;;;2.10;1.77;;;;;;;27.90;46.65;100747.03;6222599;28;20054;-72
2022/06/30 14:26:02;;;;;;;4.00;2.35;;;;;;;27.80;44.97;100757.34;6226573;28;20046;-79
2022/06/30 14:29:04;;;;;;;5.15;2.15;;;;;;;27.75;46.51;100749.81;6229246;28;20054;-80
2022/06/30 14:32:06;;;;;;;2.88;2.25;;;;;;;27.71;47.75;100745.81;6229563;28;20045;-79
2022/06/30 14:35:10;;;;;;;3.13;2.00;;;;;;;27.67;47.92;100727.47;6230662;28;20474;-80